Terminal Aerodrome Forecast
Issued by NWS

Home | Current Version | Previous Version | Text Only | Print | Product List | Glossary On
Versions: 1 2 3 4 5 6 7 8 9 10 11 12 13 14 15
000
FTUS41 KBTV 301120
TAFMSS
TAF
KMSS 301120Z 3012/3112 22006KT P6SM SCT060 SCT250
     FM301300 23008KT P6SM VCSH BKN060 OVC120
      TEMPO 3013/3015 5SM -SHRA BR BKN035 OVC060
     FM301600 24010G19KT P6SM SCT070 SCT250
     FM310000 23006KT P6SM FEW070=

USA.gov is the U.S. government's official web portal to all federal, state and local government web resources and services.